Time;durP1;ratioP1;P1;durP2;ratioP2;P2;SDS_P1;SDS_P2;PMS_P1;PMS_P2;Temp;Humidity;BMP_temperature;BMP_pressure;BME280_temperature;BME280_humidity;BME280_pressure;Samples;Min_cycle;Max_cycle;Signal;HPM_P1;HPM_P2
2022/04/28 00:01:24;;;;;;;29.60;20.30;;;;;;;2.87;73.48;100669.54;213253;1274;140692;-66
2022/04/28 00:06:28;;;;;;;28.40;17.90;;;;;;;2.92;73.90;100674.79;214899;1274;140726;-65
2022/04/28 00:11:31;;;;;;;33.10;22.00;;;;;;;2.94;73.38;100673.73;213835;1274;140603;-64
2022/04/28 00:16:37;;;;;;;36.50;19.70;;;;;;;2.92;73.13;100673.98;216069;1274;140343;-67
2022/04/28 00:21:41;;;;;;;22.70;15.40;;;;;;;2.82;73.04;100673.21;215945;1274;140457;-66
2022/04/28 00:26:43;;;;;;;15.90;13.20;;;;;;;2.71;73.12;100669.52;216116;1274;141730;-68
2022/04/28 00:31:47;;;;;;;19.40;15.10;;;;;;;2.61;73.15;100676.39;215905;1274;141529;-67
2022/04/28 00:36:49;;;;;;;26.30;15.80;;;;;;;2.56;73.22;100678.83;215392;1274;141542;-67
2022/04/28 00:41:52;;;;;;;24.20;15.70;;;;;;;2.54;73.28;100679.13;214344;1274;141634;-65
2022/04/28 00:46:54;;;;;;;23.40;15.80;;;;;;;2.48;73.22;100682.27;213555;1274;142130;-64
2022/04/28 00:51:59;;;;;;;34.80;20.30;;;;;;;2.36;73.65;100680.85;214703;1274;153437;-66
2022/04/28 00:57:10;;;;;;;29.70;19.70;;;;;;;2.33;73.90;100679.98;215200;1274;140457;-65
2022/04/28 01:02:13;;;;;;;28.80;18.60;;;;;;;2.28;74.07;100674.20;213427;1274;142090;-66
2022/04/28 01:07:17;;;;;;;21.80;15.80;;;;;;;2.18;74.13;100666.98;214043;1272;140935;-66
2022/04/28 01:12:23;;;;;;;27.40;15.60;;;;;;;2.06;74.74;100662.77;213935;1274;141185;-65
2022/04/28 01:17:27;;;;;;;38.00;20.80;;;;;;;2.04;75.01;100664.23;214156;1274;141450;-65
2022/04/28 01:22:29;;;;;;;45.30;24.10;;;;;;;2.06;75.19;100661.41;213494;1273;140393;-65
2022/04/28 01:27:33;;;;;;;147.90;57.80;;;;;;;2.08;75.02;100658.70;213357;1274;141430;-64
2022/04/28 01:32:35;;;;;;;144.60;54.40;;;;;;;2.13;75.41;100660.81;213814;1274;142950;-65
2022/04/28 01:37:38;;;;;;;101.80;40.40;;;;;;;2.12;75.66;100659.34;213386;1274;141393;-68
2022/04/28 01:42:50;;;;;;;71.80;31.10;;;;;;;2.05;75.25;100656.60;213073;1274;143322;-67
2022/04/28 01:47:54;;;;;;;55.70;28.90;;;;;;;2.03;75.45;100660.66;214911;1273;140139;-67
2022/04/28 01:58:27;;;;;;;42.00;21.60;;;;;;;2.01;75.48;100665.54;215279;1274;142196;-68
2022/04/28 02:03:30;;;;;;;35.50;22.00;;;;;;;1.91;74.98;100663.95;216178;1274;142400;-66
2022/04/28 02:08:34;;;;;;;35.50;22.00;;;;;;;1.80;74.89;100654.77;214781;1274;140932;-67
2022/04/28 02:13:37;;;;;;;51.50;26.50;;;;;;;1.69;75.14;100655.29;214262;1274;140622;-67
2022/04/28 02:18:40;;;;;;;38.50;24.80;;;;;;;1.70;75.66;100654.05;215615;1274;140879;-67
2022/04/28 02:23:43;;;;;;;33.10;21.30;;;;;;;1.76;76.00;100648.34;215067;1274;140970;-68
2022/04/28 02:28:46;;;;;;;37.80;23.20;;;;;;;1.85;76.11;100650.74;215127;1276;141215;-68
2022/04/28 02:33:48;;;;;;;37.40;22.50;;;;;;;1.92;76.38;100649.30;215971;1274;141383;-68
2022/04/28 02:38:52;;;;;;;32.20;23.20;;;;;;;1.96;76.22;100645.52;215036;1274;140666;-68
2022/04/28 02:43:56;;;;;;;33.30;20.60;;;;;;;1.99;76.16;100643.16;215024;1274;140676;-68
2022/04/28 02:48:59;;;;;;;23.10;17.60;;;;;;;1.92;75.96;100644.07;214592;1274;140706;-67
2022/04/28 02:54:02;;;;;;;36.20;21.60;;;;;;;1.80;75.99;100643.38;214312;1275;140427;-67
2022/04/28 02:59:05;;;;;;;35.60;22.90;;;;;;;1.79;76.50;100643.64;214145;1274;140162;-68
2022/04/28 03:04:09;;;;;;;34.00;25.70;;;;;;;1.84;76.42;100648.86;214311;1274;142293;-67
2022/04/28 03:14:33;;;;;;;52.50;35.00;;;;;;;1.91;76.94;100654.71;213176;1276;140544;-68
2022/04/28 03:19:36;;;;;;;45.20;29.60;;;;;;;2.01;77.20;100657.31;213700;1276;141364;-68
2022/04/28 03:24:40;;;;;;;43.90;30.40;;;;;;;2.14;77.52;100660.58;213817;1274;232208;-64
2022/04/28 03:29:44;;;;;;;51.50;29.50;;;;;;;2.25;77.83;100662.71;214450;1274;140709;-67
2022/04/28 03:34:48;;;;;;;52.50;33.50;;;;;;;2.35;77.33;100663.25;213509;1274;141768;-65
2022/04/28 03:39:51;;;;;;;33.80;23.30;;;;;;;2.45;77.84;100663.99;213975;1274;142034;-68
2022/04/28 03:44:54;;;;;;;26.20;19.60;;;;;;;2.54;77.81;100667.12;213234;1275;232998;-67
2022/04/28 03:49:56;;;;;;;39.40;24.20;;;;;;;2.57;77.98;100666.94;215077;1276;141187;-70
2022/04/28 03:54:58;;;;;;;44.80;29.70;;;;;;;2.66;78.24;100674.80;214893;1275;141100;-69
2022/04/28 04:00:05;;;;;;;76.70;38.30;;;;;;;2.78;77.97;100677.18;214529;1274;141226;-69
2022/04/28 04:05:10;;;;;;;58.70;32.80;;;;;;;2.88;77.83;100677.50;215779;1274;141088;-69
2022/04/28 04:10:13;;;;;;;68.00;34.10;;;;;;;2.96;77.92;100676.14;215205;1274;141731;-70
2022/04/28 04:15:16;;;;;;;71.40;39.00;;;;;;;3.00;77.87;100680.80;215434;1274;141360;-68
2022/04/28 04:20:18;;;;;;;62.60;37.90;;;;;;;3.16;78.08;100683.89;215832;1274;141322;-71
2022/04/28 04:25:21;;;;;;;69.00;43.50;;;;;;;3.33;78.38;100687.82;215754;1274;140480;-70
2022/04/28 04:35:46;;;;;;;72.70;45.40;;;;;;;3.62;78.22;100704.34;214298;1276;142410;-67
2022/04/28 04:40:49;;;;;;;70.00;44.60;;;;;;;3.73;78.22;100710.73;213907;1275;153122;-68
2022/04/28 04:45:54;;;;;;;72.00;43.50;;;;;;;3.83;78.36;100715.94;213517;1274;211323;-68
2022/04/28 04:50:58;;;;;;;66.90;40.30;;;;;;;3.95;78.61;100721.42;213803;1274;144151;-67
2022/04/28 04:56:01;;;;;;;54.80;32.30;;;;;;;4.10;78.64;100716.17;214162;1274;141431;-68
2022/04/28 05:01:06;;;;;;;54.70;35.30;;;;;;;4.15;78.32;100708.59;213709;1274;142807;-67
2022/04/28 05:06:09;;;;;;;74.30;48.00;;;;;;;4.18;78.52;100705.73;213599;1274;141962;-67
2022/04/28 05:11:12;;;;;;;70.80;42.60;;;;;;;4.26;78.87;100706.93;213689;1274;141384;-66
2022/04/28 05:16:14;;;;;;;77.60;49.80;;;;;;;4.38;79.03;100710.39;213499;1274;141924;-69
2022/04/28 05:21:16;;;;;;;68.80;44.40;;;;;;;4.55;78.99;100712.37;213494;1274;141050;-69
2022/04/28 05:26:20;;;;;;;69.90;44.70;;;;;;;4.72;79.33;100713.08;214508;1274;140344;-68
2022/04/28 05:31:24;;;;;;;95.00;57.30;;;;;;;4.91;79.16;100722.98;213143;1276;142554;-69
2022/04/28 05:36:28;;;;;;;90.40;56.80;;;;;;;5.09;79.08;100725.71;213593;1274;142663;-68
2022/04/28 05:41:34;;;;;;;78.80;52.90;;;;;;;5.30;79.31;100730.36;213352;1274;141999;-70
2022/04/28 05:46:38;;;;;;;63.40;39.10;;;;;;;5.49;79.30;100733.77;214107;1274;141417;-70
2022/04/28 05:51:42;;;;;;;84.80;53.00;;;;;;;5.66;79.47;100737.02;214597;1274;143089;-69
2022/04/28 05:56:45;;;;;;;126.40;79.70;;;;;;;5.91;79.19;100737.55;214951;1274;141508;-69
2022/04/28 06:01:48;;;;;;;81.10;50.60;;;;;;;6.17;78.75;100735.46;215086;1273;141648;-68
2022/04/28 06:06:51;;;;;;;64.40;40.80;;;;;;;6.50;78.72;100735.48;213942;1274;141906;-68
2022/04/28 06:11:56;;;;;;;53.60;35.90;;;;;;;6.79;78.41;100736.73;215457;1274;143468;-69
2022/04/28 06:17:01;;;;;;;63.60;41.80;;;;;;;7.19;78.64;100730.02;216042;1274;142659;-69
2022/04/28 06:22:04;;;;;;;41.80;26.50;;;;;;;7.75;78.06;100729.96;214423;1274;143033;-69
2022/04/28 06:27:07;;;;;;;55.40;36.00;;;;;;;8.27;77.42;100735.16;213911;1274;143098;-69
2022/04/28 06:32:10;;;;;;;41.70;29.10;;;;;;;8.95;77.28;100738.84;214214;1274;143298;-67
2022/04/28 06:37:17;;;;;;;44.90;29.50;;;;;;;9.57;75.36;100737.59;214967;1273;141534;-68
2022/04/28 06:42:20;;;;;;;30.90;23.40;;;;;;;9.99;73.83;100736.80;215247;1274;142948;-69
2022/04/28 06:47:24;;;;;;;31.10;22.50;;;;;;;10.48;73.27;100742.11;214123;1275;142445;-68
2022/04/28 06:52:26;;;;;;;40.60;28.90;;;;;;;11.08;72.21;100738.63;213915;1274;140979;-69
2022/04/28 06:57:28;;;;;;;42.60;29.80;;;;;;;12.00;70.75;100731.37;214235;1274;140981;-69
2022/04/28 07:02:30;;;;;;;37.30;25.90;;;;;;;12.77;70.23;100729.95;213674;1275;141066;-70
2022/04/28 07:07:34;;;;;;;24.10;17.10;;;;;;;14.24;69.27;100729.96;214077;1272;140807;-69
2022/04/28 07:12:39;;;;;;;24.00;17.40;;;;;;;15.15;67.79;100732.44;214502;1274;140874;-68
2022/04/28 07:17:44;;;;;;;29.90;19.50;;;;;;;15.84;66.67;100730.64;213421;1276;143456;-69
2022/04/28 07:22:48;;;;;;;24.50;18.90;;;;;;;16.02;64.22;100731.40;213743;1274;141072;-68
2022/04/28 07:27:52;;;;;;;21.60;15.20;;;;;;;16.03;63.90;100734.58;213491;1275;141986;-69
2022/04/28 07:32:55;;;;;;;24.30;18.10;;;;;;;16.35;63.10;100733.91;214947;1274;141187;-68
2022/04/28 07:37:58;;;;;;;21.60;16.40;;;;;;;16.65;62.99;100737.27;214128;1274;141196;-69
2022/04/28 07:43:02;;;;;;;20.50;15.40;;;;;;;17.23;63.08;100734.27;215410;1274;140963;-68
2022/04/28 07:48:05;;;;;;;15.60;11.90;;;;;;;17.70;61.42;100732.80;214822;1274;594702;-68
2022/04/28 07:53:08;;;;;;;15.20;11.40;;;;;;;18.09;60.49;100731.84;215488;1276;140956;-68
2022/04/28 07:58:10;;;;;;;14.80;12.60;;;;;;;18.46;59.62;100729.75;213373;1276;141592;-69
2022/04/28 08:03:14;;;;;;;14.60;11.90;;;;;;;18.73;58.16;100732.38;215690;1276;140740;-67
2022/04/28 08:08:17;;;;;;;14.90;9.80;;;;;;;18.64;56.64;100734.33;216051;1274;141010;-69
2022/04/28 08:13:20;;;;;;;14.50;10.80;;;;;;;18.83;56.86;100742.95;215959;1274;141260;-70
2022/04/28 08:18:24;;;;;;;10.30;8.80;;;;;;;19.02;55.40;100743.44;215264;1274;141888;-70
2022/04/28 08:23:45;;;;;;;14.50;10.70;;;;;;;19.18;55.17;100745.43;215278;1274;140639;-69
2022/04/28 08:28:49;;;;;;;12.70;11.30;;;;;;;19.33;54.29;100746.09;216010;1274;139692;-70
2022/04/28 08:33:51;;;;;;;13.70;11.10;;;;;;;19.28;53.55;100744.73;214547;1274;141193;-67
2022/04/28 08:38:55;;;;;;;10.60;9.00;;;;;;;19.32;53.14;100746.31;214280;1274;141117;-70
2022/04/28 08:44:00;;;;;;;13.80;8.80;;;;;;;19.50;52.50;100742.64;214335;1274;141778;-69
2022/04/28 08:49:04;;;;;;;16.60;8.40;;;;;;;19.57;51.96;100748.23;213754;1274;141500;-70
2022/04/28 08:54:11;;;;;;;12.90;11.20;;;;;;;19.65;51.38;100744.38;213242;1276;140768;-70
2022/04/28 08:59:14;;;;;;;9.60;7.80;;;;;;;19.68;50.94;100747.79;214070;1276;142884;-69
2022/04/28 09:04:21;;;;;;;12.60;9.10;;;;;;;19.68;50.65;100747.24;213921;1274;140799;-69
2022/04/28 09:09:28;;;;;;;6.70;5.70;;;;;;;19.75;49.87;100749.20;213607;1275;141273;-68
2022/04/28 09:14:32;;;;;;;6.10;5.50;;;;;;;19.82;49.45;100746.88;213429;1274;140582;-69
2022/04/28 09:19:38;;;;;;;6.50;5.90;;;;;;;19.69;48.48;100747.41;213425;1274;142304;-69
2022/04/28 09:24:44;;;;;;;15.50;8.60;;;;;;;19.53;47.80;100750.52;213161;1274;140568;-70
2022/04/28 09:29:48;;;;;;;10.90;8.10;;;;;;;19.20;47.91;100745.66;213207;1274;139779;-70
2022/04/28 09:34:53;;;;;;;7.40;6.50;;;;;;;19.39;47.84;100746.86;214470;1274;139928;-70
2022/04/28 09:45:23;;;;;;;8.00;5.00;;;;;;;18.47;46.11;100752.20;214900;1274;140679;-69
2022/04/28 09:50:29;;;;;;;4.50;3.60;;;;;;;18.22;46.56;100745.16;215552;1274;139575;-69
2022/04/28 09:55:40;;;;;;;5.40;4.80;;;;;;;18.52;46.15;100747.54;215677;1276;140339;-70
2022/04/28 10:00:43;;;;;;;4.60;4.20;;;;;;;18.51;45.66;100751.80;214798;1274;140448;-68
2022/04/28 10:05:48;;;;;;;5.10;4.40;;;;;;;18.33;45.13;100749.00;216205;1274;140628;-70
2022/04/28 10:10:55;;;;;;;5.50;4.30;;;;;;;18.43;45.32;100753.65;214409;1276;139262;-70
2022/04/28 10:16:04;;;;;;;12.30;7.90;;;;;;;18.53;44.82;100754.35;216185;1276;139667;-70
2022/04/28 10:21:13;;;;;;;12.90;11.40;;;;;;;18.28;44.42;100756.25;215249;1276;140631;-68
2022/04/28 10:37:12;;;;;;;13.60;10.20;;;;;;;17.33;47.26;100746.73;213424;1274;140762;-71
2022/04/28 10:42:35;;;;;;;10.40;9.20;;;;;;;17.91;48.03;100754.15;214938;1274;140412;-69
2022/04/28 10:47:41;;;;;;;14.50;9.00;;;;;;;18.31;47.00;100749.86;214407;1274;141045;-69
2022/04/28 10:53:00;;;;;;;12.60;9.10;;;;;;;18.39;46.75;100748.67;214507;1276;140883;-70
2022/04/28 10:58:24;;;;;;;8.10;6.70;;;;;;;18.85;46.75;100747.05;213203;1274;139989;-68
2022/04/28 11:03:55;;;;;;;11.60;8.70;;;;;;;19.04;45.97;100743.55;213510;1274;140540;-69
2022/04/28 11:09:00;;;;;;;10.10;8.30;;;;;;;18.75;45.66;100751.60;213466;1274;141397;-70
2022/04/28 11:14:03;;;;;;;10.20;8.90;;;;;;;18.40;45.43;100755.14;214779;1274;140165;-68
2022/04/28 11:19:08;;;;;;;14.30;10.50;;;;;;;18.54;45.59;100749.34;214204;1274;140361;-68
2022/04/28 11:24:11;;;;;;;11.80;8.70;;;;;;;18.70;45.36;100745.81;214246;1274;142708;-66
2022/04/28 11:29:14;;;;;;;14.10;6.20;;;;;;;19.22;44.97;100746.94;214583;1274;139787;-68
2022/04/28 11:34:18;;;;;;;6.80;6.10;;;;;;;19.60;44.45;100745.23;214751;1274;140276;-68
2022/04/28 11:39:25;;;;;;;11.50;8.50;;;;;;;19.68;43.90;100751.68;213355;1274;141115;-68
2022/04/28 11:44:29;;;;;;;13.20;7.80;;;;;;;19.37;43.41;100751.30;214503;1274;139995;-69
2022/04/28 11:49:39;;;;;;;9.90;7.00;;;;;;;19.26;43.55;100754.68;214377;1274;141815;-68
2022/04/28 11:54:42;;;;;;;7.80;7.10;;;;;;;19.54;43.12;100748.80;215416;1276;141300;-71
2022/04/28 11:59:47;;;;;;;7.80;7.10;;;;;;;19.60;42.98;100743.17;215803;1275;141046;-69
2022/04/28 12:04:49;;;;;;;10.70;8.30;;;;;;;19.68;42.71;100747.18;214563;1275;141154;-69
2022/04/28 12:15:15;;;;;;;8.10;7.30;;;;;;;19.65;42.00;100740.42;215346;1274;141518;-69
2022/04/28 12:20:22;;;;;;;9.10;8.20;;;;;;;19.73;42.43;100737.13;214152;1274;140991;-67
2022/04/28 12:25:25;;;;;;;11.80;9.40;;;;;;;19.47;42.30;100740.79;214506;1274;141126;-67
2022/04/28 12:30:28;;;;;;;11.00;9.80;;;;;;;19.20;42.72;100740.66;214353;1274;140652;-68
2022/04/28 12:35:36;;;;;;;11.20;9.80;;;;;;;18.95;43.07;100739.05;213090;1274;140545;-67
2022/04/28 12:40:43;;;;;;;13.00;10.40;;;;;;;18.85;43.52;100737.02;214599;1274;139987;-69
2022/04/28 12:45:50;;;;;;;16.40;9.90;;;;;;;18.97;43.54;100735.42;213772;1274;140590;-69
2022/04/28 12:51:11;;;;;;;9.30;8.50;;;;;;;18.97;43.39;100736.67;213068;1274;144306;-68
2022/04/28 12:56:27;;;;;;;9.50;8.60;;;;;;;19.28;42.78;100735.60;214133;1274;140889;-70
2022/04/28 13:01:31;;;;;;;14.40;9.70;;;;;;;19.61;43.02;100727.98;213254;1274;141021;-67
2022/04/28 13:06:37;;;;;;;10.40;8.40;;;;;;;19.77;42.58;100722.91;213421;1274;141332;-68
2022/04/28 13:11:42;;;;;;;11.20;10.10;;;;;;;19.59;42.31;100717.00;213684;1274;141841;-68
2022/04/28 13:16:47;;;;;;;13.30;12.00;;;;;;;19.11;42.51;100719.45;214173;1274;142157;-68
2022/04/28 13:21:51;;;;;;;13.40;11.50;;;;;;;18.64;42.98;100718.60;213801;1274;204724;-68
2022/04/28 13:26:53;;;;;;;16.30;13.30;;;;;;;18.17;43.19;100723.74;213850;1274;141885;-68
2022/04/28 13:32:05;;;;;;;12.90;11.40;;;;;;;17.76;43.91;100721.52;214383;1274;142041;-65
2022/04/28 13:37:08;;;;;;;15.40;10.40;;;;;;;17.57;44.25;100722.32;213659;1274;152478;-70
2022/04/28 13:42:12;;;;;;;15.80;11.50;;;;;;;17.41;44.61;100722.55;214356;1276;140891;-66
2022/04/28 13:47:15;;;;;;;12.20;10.90;;;;;;;17.32;44.87;100724.30;215061;1274;142275;-69
2022/04/28 13:52:18;;;;;;;12.00;10.00;;;;;;;17.26;44.85;100720.14;215148;1274;141532;-68
2022/04/28 13:57:20;;;;;;;13.10;11.60;;;;;;;17.19;45.07;100718.51;214268;1274;143600;-66
2022/04/28 14:02:23;;;;;;;14.90;12.10;;;;;;;17.14;45.27;100717.92;215599;1274;142018;-68
2022/04/28 14:07:26;;;;;;;11.80;10.10;;;;;;;17.15;45.57;100715.49;214795;1274;141656;-69
2022/04/28 14:12:29;;;;;;;12.50;11.10;;;;;;;17.27;45.76;100719.23;215562;1274;141127;-70
2022/04/28 14:17:32;;;;;;;13.30;12.00;;;;;;;17.51;45.76;100715.05;214392;1274;141023;-69
2022/04/28 14:22:35;;;;;;;12.00;10.60;;;;;;;17.86;45.31;100706.86;213830;1274;141271;-70
2022/04/28 14:27:38;;;;;;;11.70;10.50;;;;;;;18.05;44.85;100706.56;214362;1274;142689;-70
2022/04/28 14:32:42;;;;;;;12.60;11.20;;;;;;;18.16;44.79;100709.66;213416;1274;141932;-65
2022/04/28 14:37:46;;;;;;;14.60;11.60;;;;;;;18.19;44.19;100707.30;213414;1274;141602;-68
2022/04/28 14:42:49;;;;;;;12.00;10.80;;;;;;;18.07;44.36;100702.85;213752;1274;143142;-72
2022/04/28 14:47:52;;;;;;;16.40;10.20;;;;;;;17.86;44.52;100704.17;214064;1274;141140;-70
2022/04/28 14:53:15;;;;;;;14.80;10.70;;;;;;;17.44;44.27;100709.59;213987;1274;141224;-68
2022/04/28 14:58:18;;;;;;;11.80;8.70;;;;;;;17.09;44.93;100707.96;214652;1274;140261;-65
2022/04/28 15:03:21;;;;;;;11.10;9.90;;;;;;;16.87;45.46;100708.74;213610;1275;140649;-68
2022/04/28 15:08:24;;;;;;;12.50;11.30;;;;;;;16.71;45.70;100706.14;213516;1274;141881;-66
2022/04/28 15:13:29;;;;;;;15.80;10.30;;;;;;;16.53;45.81;100713.70;213969;1274;140740;-69
2022/04/28 15:18:31;;;;;;;10.30;9.10;;;;;;;16.38;46.02;100715.77;215126;1274;140978;-68
2022/04/28 15:23:33;;;;;;;12.30;9.80;;;;;;;16.32;46.22;100712.83;214301;1274;141289;-68
2022/04/28 15:28:36;;;;;;;13.70;10.20;;;;;;;16.41;46.37;100716.18;214353;1274;141118;-70
2022/04/28 15:33:40;;;;;;;10.50;8.60;;;;;;;16.47;46.32;100725.80;215017;1274;141307;-70
2022/04/28 15:38:42;;;;;;;8.30;7.20;;;;;;;16.32;46.13;100728.55;214555;1274;141041;-70
2022/04/28 15:43:45;;;;;;;9.20;7.80;;;;;;;16.05;46.09;100731.71;214039;1274;142357;-72
2022/04/28 15:48:48;;;;;;;7.40;6.80;;;;;;;15.73;46.19;100736.91;214284;1274;141030;-71
2022/04/28 15:53:51;;;;;;;14.70;7.60;;;;;;;15.51;46.67;100741.73;215957;1274;142737;-74
2022/04/28 15:58:54;;;;;;;11.50;7.70;;;;;;;15.39;47.00;100742.05;214918;1274;140938;-70
2022/04/28 16:03:57;;;;;;;7.30;6.60;;;;;;;15.34;47.04;100740.77;215220;1274;140169;-69
2022/04/28 16:09:01;;;;;;;6.70;6.00;;;;;;;15.41;47.46;100741.34;213883;1274;140100;-68
2022/04/28 16:14:03;;;;;;;8.50;7.70;;;;;;;15.52;47.48;100741.48;213669;1274;139915;-71
2022/04/28 16:19:05;;;;;;;11.40;6.90;;;;;;;15.50;47.37;100739.14;215386;1274;139861;-69
2022/04/28 16:24:09;;;;;;;8.40;7.50;;;;;;;15.42;47.27;100743.83;214281;1274;140709;-67
2022/04/28 16:29:13;;;;;;;8.00;6.90;;;;;;;15.24;47.32;100747.53;214076;1274;141722;-67
2022/04/28 16:34:17;;;;;;;8.60;7.60;;;;;;;15.09;47.45;100745.65;213809;1274;140698;-68
2022/04/28 16:39:20;;;;;;;8.20;6.60;;;;;;;15.02;47.52;100745.23;213133;1274;145491;-68
2022/04/28 16:44:22;;;;;;;8.20;7.00;;;;;;;14.95;47.78;100748.55;214593;1274;141193;-69
2022/04/28 16:49:27;;;;;;;7.90;7.00;;;;;;;14.85;48.26;100753.70;213209;1274;140739;-66
2022/04/28 16:54:31;;;;;;;7.20;6.50;;;;;;;14.71;48.54;100757.77;214568;1274;232759;-68
2022/04/28 16:59:34;;;;;;;7.20;5.90;;;;;;;14.55;48.99;100759.09;213527;1274;140730;-68
2022/04/28 17:04:41;;;;;;;9.90;7.30;;;;;;;14.38;49.39;100763.66;213829;1274;142399;-68
2022/04/28 17:09:45;;;;;;;8.00;6.60;;;;;;;14.24;49.74;100764.34;213737;1274;140673;-68
2022/04/28 17:14:48;;;;;;;10.30;6.60;;;;;;;14.04;50.16;100762.91;213566;1274;140696;-68
2022/04/28 17:19:50;;;;;;;9.30;6.70;;;;;;;13.89;50.42;100762.71;214332;1274;141029;-67
2022/04/28 17:24:53;;;;;;;9.20;6.60;;;;;;;13.75;51.15;100766.61;213676;1274;141749;-66
2022/04/28 17:29:56;;;;;;;7.70;7.00;;;;;;;13.62;51.90;100774.59;213088;1274;143368;-68
2022/04/28 17:35:01;;;;;;;9.40;7.50;;;;;;;13.49;52.61;100778.65;215393;1274;141101;-65
2022/04/28 17:40:04;;;;;;;9.00;7.30;;;;;;;13.37;53.55;100785.56;213658;1274;140195;-65
2022/04/28 17:45:08;;;;;;;8.10;7.30;;;;;;;13.24;53.77;100795.82;216153;1274;140744;-71
2022/04/28 17:50:11;;;;;;;8.50;7.60;;;;;;;13.11;54.12;100801.94;215910;1272;141488;-67
2022/04/28 18:00:39;;;;;;;6.70;6.20;;;;;;;12.82;55.37;100817.02;215501;1274;140621;-68
2022/04/28 18:05:43;;;;;;;8.50;6.60;;;;;;;12.66;55.85;100822.73;215601;1274;141442;-66
2022/04/28 18:10:48;;;;;;;7.20;6.50;;;;;;;12.43;56.13;100826.81;215092;1274;140109;-67
2022/04/28 18:15:52;;;;;;;10.70;6.50;;;;;;;12.26;56.53;100833.28;213942;1274;140967;-69
2022/04/28 18:20:56;;;;;;;15.40;7.00;;;;;;;12.12;56.76;100841.38;212866;1274;143366;-66
2022/04/28 18:26:00;;;;;;;22.40;7.30;;;;;;;11.94;57.08;100847.64;215162;1274;140282;-69
2022/04/28 18:31:10;;;;;;;8.00;6.90;;;;;;;11.77;57.41;100855.75;214147;1274;141296;-68
2022/04/28 18:47:07;;;;;;;7.40;6.60;;;;;;;11.15;58.55;100878.06;213971;1274;139981;-67
2022/04/28 18:52:12;;;;;;;7.40;5.60;;;;;;;10.92;58.66;100882.69;214648;1274;141772;-68
2022/04/28 18:57:20;;;;;;;6.50;5.80;;;;;;;10.68;59.32;100888.48;214184;1274;140827;-68
2022/04/28 19:02:25;;;;;;;7.60;5.80;;;;;;;10.52;59.93;100893.52;214417;1274;141059;-68
2022/04/28 19:07:32;;;;;;;9.00;8.00;;;;;;;10.43;60.71;100899.88;213556;1275;151830;-68
2022/04/28 19:12:37;;;;;;;10.80;7.40;;;;;;;10.39;60.99;100899.48;213378;1274;140959;-66
2022/04/28 19:17:43;;;;;;;9.90;8.90;;;;;;;10.28;61.21;100906.66;213959;1274;141674;-66
2022/04/28 19:22:48;;;;;;;9.40;8.50;;;;;;;10.26;61.86;100908.38;213266;1273;141660;-67
2022/04/28 19:27:52;;;;;;;9.50;7.80;;;;;;;10.22;61.99;100907.09;213455;1274;143162;-66
2022/04/28 19:33:04;;;;;;;9.30;8.40;;;;;;;10.16;62.14;100913.20;215498;1274;142002;-68
2022/04/28 19:38:15;;;;;;;10.60;8.90;;;;;;;10.18;62.81;100922.02;214105;1274;142130;-66
2022/04/28 19:43:22;;;;;;;13.00;9.60;;;;;;;10.18;63.23;100924.33;216136;1274;143783;-67
2022/04/28 19:48:33;;;;;;;12.70;8.10;;;;;;;10.15;63.43;100923.63;215599;1274;588747;-69
2022/04/28 19:53:39;;;;;;;7.70;6.80;;;;;;;10.02;63.66;100928.81;216020;1274;142624;-68
2022/04/28 19:58:43;;;;;;;9.30;7.80;;;;;;;9.90;63.87;100938.11;216124;1274;141681;-67
2022/04/28 20:03:54;;;;;;;13.40;8.30;;;;;;;9.89;64.33;100935.52;216069;1274;140728;-69
2022/04/28 20:09:03;;;;;;;10.20;8.60;;;;;;;9.96;64.62;100934.57;215093;1274;140733;-68
2022/04/28 20:14:11;;;;;;;11.00;8.40;;;;;;;9.84;64.32;100936.27;215761;1274;140442;-70
2022/04/28 20:19:14;;;;;;;10.50;9.00;;;;;;;9.76;64.56;100941.66;215003;1274;142769;-68
2022/04/28 20:24:18;;;;;;;18.90;8.30;;;;;;;9.76;64.73;100949.23;213841;1277;142001;-67
2022/04/28 20:29:22;;;;;;;11.30;9.10;;;;;;;9.77;65.12;100945.91;213397;1274;141811;-69
2022/04/28 20:34:25;;;;;;;11.50;8.60;;;;;;;9.70;65.22;100949.09;214792;1274;144135;-69
2022/04/28 20:39:29;;;;;;;10.40;8.70;;;;;;;9.58;65.18;100953.20;214019;1274;142239;-67
2022/04/28 20:44:32;;;;;;;8.60;7.20;;;;;;;9.35;65.38;100952.98;213154;1276;152841;-69
2022/04/28 20:49:35;;;;;;;9.50;8.50;;;;;;;9.12;65.74;100957.42;213887;1274;141012;-70
2022/04/28 20:54:38;;;;;;;14.60;8.80;;;;;;;8.93;66.20;100956.45;214150;1274;143959;-68
2022/04/28 20:59:42;;;;;;;16.00;10.90;;;;;;;8.81;66.65;100950.85;213208;1274;141409;-67
2022/04/28 21:04:50;;;;;;;15.70;13.90;;;;;;;8.70;66.75;100957.02;213957;1274;140872;-68
2022/04/28 21:09:53;;;;;;;21.10;12.70;;;;;;;8.61;67.31;100959.80;213715;1273;141495;-66
2022/04/28 21:14:59;;;;;;;13.60;10.60;;;;;;;8.54;67.61;100964.45;213887;1274;141646;-67
2022/04/28 21:20:04;;;;;;;13.10;10.80;;;;;;;8.51;67.77;100962.51;213834;1273;141841;-66
2022/04/28 21:25:09;;;;;;;17.50;12.90;;;;;;;8.50;68.10;100961.23;213641;1274;141985;-67
2022/04/28 21:30:12;;;;;;;18.40;13.70;;;;;;;8.50;68.47;100961.68;215368;1274;141664;-68
2022/04/28 21:35:15;;;;;;;15.60;14.00;;;;;;;8.48;68.28;100963.02;214287;1274;142097;-68
2022/04/28 21:40:20;;;;;;;16.30;13.70;;;;;;;8.47;68.57;100961.04;213352;1274;141836;-67
2022/04/28 21:45:23;;;;;;;21.00;15.60;;;;;;;8.38;68.25;100960.26;214262;1274;165977;-69
2022/04/28 21:50:32;;;;;;;13.10;11.40;;;;;;;8.13;68.21;100970.13;214101;1274;141797;-67
2022/04/28 21:55:35;;;;;;;14.90;12.00;;;;;;;7.93;68.06;100967.52;216091;1274;141713;-69
2022/04/28 22:00:41;;;;;;;15.30;11.50;;;;;;;7.75;67.83;100966.30;215969;1274;141118;-71
2022/04/28 22:11:14;;;;;;;16.20;12.80;;;;;;;7.60;68.62;100964.08;215370;1274;141342;-69
2022/04/28 22:16:17;;;;;;;15.90;13.00;;;;;;;7.52;68.41;100968.11;215625;1274;140568;-71
2022/04/28 22:21:21;;;;;;;16.10;12.90;;;;;;;7.29;68.24;100965.38;215154;1274;142017;-68
2022/04/28 22:26:24;;;;;;;18.80;14.40;;;;;;;7.04;68.62;100966.02;213880;1274;140376;-68
2022/04/28 22:31:31;;;;;;;25.80;19.80;;;;;;;6.94;68.92;100966.70;214427;1274;140920;-66
2022/04/28 22:36:35;;;;;;;26.90;18.70;;;;;;;6.81;68.79;100964.73;213979;1274;141313;-65
2022/04/28 22:41:37;;;;;;;23.20;16.60;;;;;;;6.63;68.87;100967.34;214946;1274;141069;-66
2022/04/28 22:46:41;;;;;;;18.50;16.30;;;;;;;6.57;69.44;100964.02;213068;1274;141425;-65
2022/04/28 22:51:44;;;;;;;28.80;16.20;;;;;;;6.44;69.78;100959.75;213363;1274;142217;-65
2022/04/28 22:56:47;;;;;;;23.60;15.90;;;;;;;6.32;69.87;100957.92;213893;1274;141255;-65
2022/04/28 23:01:50;;;;;;;24.50;16.80;;;;;;;6.26;70.13;100952.18;213391;1275;141957;-67
2022/04/28 23:06:54;;;;;;;23.70;18.40;;;;;;;6.08;70.10;100949.59;214445;1274;142272;-66
2022/04/28 23:11:57;;;;;;;23.20;18.00;;;;;;;5.94;70.48;100943.45;213372;1275;140644;-66
2022/04/28 23:17:00;;;;;;;24.90;18.30;;;;;;;5.84;71.03;100942.82;214292;1274;140499;-65
2022/04/28 23:22:03;;;;;;;31.60;22.40;;;;;;;5.90;71.38;100944.44;214068;1274;212282;-64
2022/04/28 23:27:07;;;;;;;35.80;22.40;;;;;;;5.94;71.47;100942.73;215437;1274;141400;-66
2022/04/28 23:32:09;;;;;;;44.30;25.50;;;;;;;5.97;71.89;100942.59;214475;1273;142051;-66
2022/04/28 23:42:36;;;;;;;31.80;21.10;;;;;;;5.93;71.55;100939.13;215217;1274;141471;-67
2022/04/28 23:47:39;;;;;;;49.20;28.30;;;;;;;5.82;71.82;100937.20;216110;1274;140441;-67
2022/04/28 23:58:04;;;;;;;35.80;21.00;;;;;;;5.81;72.22;100934.17;214212;1277;141440;-67
